Terminal Aerodrome Forecast
Issued by NWS

Home | Current Version | Previous Version | Text Only | Print | Product List | Glossary On
Versions: 1 2 3 4 5 6 7 8 9 10 11 12 13
281
FTUS44 KSJT 271725
TAFBBD
TAF
KBBD 271725Z 2718/2818 VRB03KT P6SM BKN015
     FM272000 16005KT P6SM SCT020
     FM280600 16004KT 6SM BR OVC015
     FM280900 18006KT 3SM BR OVC007
      AMD NOT SKED=

USA.gov is the U.S. government's official web portal to all federal, state and local government web resources and services.